createdAt,value
2022-09-14T00:00:41.421Z,96372.00
2022-09-14T00:05:42.746Z,96381.00
2022-09-14T00:10:45.462Z,96379.00
2022-09-14T00:15:46.214Z,96382.00
2022-09-14T00:20:47.353Z,96420.00
2022-09-14T00:25:48.057Z,96423.00
2022-09-14T00:30:48.823Z,96396.00
2022-09-14T00:35:49.562Z,96396.00
2022-09-14T00:40:57.938Z,96373.00
2022-09-14T00:46:02.121Z,96335.00
2022-09-14T00:51:02.986Z,96324.00
2022-09-14T00:56:04.076Z,96325.00
2022-09-14T01:01:04.958Z,96325.00
2022-09-14T01:08:28.137Z,96312.00
2022-09-14T01:13:55.196Z,96310.00
2022-09-14T01:18:58.280Z,96299.00
2022-09-14T01:27:21.666Z,96294.00
2022-09-14T01:32:31.978Z,96274.00
2022-09-14T01:39:03.741Z,96268.00
2022-09-14T01:44:16.182Z,96266.00
2022-09-14T01:49:29.416Z,96263.00
2022-09-14T01:54:36.794Z,96261.00
2022-09-14T01:59:43.308Z,96261.00
2022-09-14T02:04:52.444Z,96259.00
2022-09-14T02:09:54.683Z,96253.00
2022-09-14T02:14:55.566Z,96253.00
2022-09-14T02:19:59.809Z,96253.00
2022-09-14T02:25:01.195Z,96248.00
2022-09-14T02:30:03.431Z,96247.00
2022-09-14T02:35:31.352Z,96237.00
2022-09-14T02:41:03.451Z,96243.00
2022-09-14T02:46:25.249Z,96236.00
2022-09-14T02:51:55.106Z,96243.00
2022-09-14T02:57:01.085Z,96252.00
2022-09-14T03:02:01.997Z,96258.00
2022-09-14T03:07:02.890Z,96249.00
2022-09-14T03:12:04.007Z,96241.00
2022-09-14T03:17:05.725Z,96219.00
2022-09-14T03:22:06.469Z,96196.00
2022-09-14T03:27:07.241Z,96186.00
2022-09-14T03:32:10.594Z,96190.00
2022-09-14T03:37:11.351Z,96185.00
2022-09-14T03:42:12.112Z,96182.00
2022-09-14T03:47:12.935Z,96178.00
2022-09-14T03:52:13.709Z,96173.00
2022-09-14T03:57:15.325Z,96172.00
2022-09-14T04:02:16.343Z,96171.00
2022-09-14T04:07:17.177Z,96172.00
2022-09-14T04:12:17.928Z,96176.00
2022-09-14T04:17:18.753Z,96180.00
2022-09-14T04:22:19.559Z,96175.00
2022-09-14T04:27:20.293Z,96158.00
2022-09-14T04:32:21.533Z,96157.00
2022-09-14T04:37:22.313Z,96153.00
2022-09-14T04:42:23.679Z,96150.00
2022-09-14T04:47:24.483Z,96160.00
2022-09-14T04:52:25.473Z,96158.00
2022-09-14T04:57:26.230Z,96165.00
2022-09-14T05:02:27.226Z,96160.00
2022-09-14T05:07:27.983Z,96170.00
2022-09-14T05:12:29.441Z,96163.00
2022-09-14T05:17:33.720Z,96152.00
2022-09-14T05:22:34.458Z,96150.00
2022-09-14T05:27:35.241Z,96142.00
2022-09-14T05:32:35.992Z,96144.00
2022-09-14T05:37:36.944Z,96137.00
2022-09-14T05:42:37.679Z,96133.00
2022-09-14T05:47:39.341Z,96146.00
2022-09-14T05:52:40.270Z,96142.00
2022-09-14T05:57:42.087Z,96122.00
2022-09-14T06:02:47.711Z,96131.00
2022-09-14T06:07:52.975Z,96134.00
2022-09-14T06:12:55.605Z,96121.00
2022-09-14T06:17:57.294Z,96126.00
2022-09-14T06:22:58.045Z,96130.00
2022-09-14T06:27:58.801Z,96136.00
2022-09-14T06:32:59.636Z,96136.00
2022-09-14T06:38:01.035Z,96132.00
2022-09-14T06:43:01.805Z,96133.00
2022-09-14T06:48:02.823Z,96127.00
2022-09-14T06:53:03.547Z,96122.00
2022-09-14T06:58:06.823Z,96143.00
2022-09-14T07:03:08.136Z,96124.00
2022-09-14T07:08:12.213Z,96121.00
2022-09-14T07:13:13.340Z,96129.00
2022-09-14T07:18:14.825Z,96127.00
2022-09-14T07:23:15.630Z,96111.00
2022-09-14T07:28:16.387Z,96108.00
2022-09-14T07:33:17.130Z,96094.00
2022-09-14T07:38:35.601Z,96115.00
2022-09-14T07:43:55.855Z,96132.00
2022-09-14T07:48:59.615Z,96139.00
2022-09-14T07:54:00.954Z,96157.00
2022-09-14T08:04:35.318Z,96164.00
2022-09-14T08:09:38.743Z,96176.00
2022-09-14T08:14:39.424Z,96159.00
2022-09-14T08:19:40.535Z,96151.00
2022-09-14T08:24:41.798Z,96149.00
2022-09-14T08:29:42.506Z,96131.00
2022-09-14T08:34:43.238Z,96125.00
2022-09-14T08:39:49.528Z,96144.00
2022-09-14T08:44:58.677Z,96145.00
2022-09-14T08:50:38.198Z,96141.00
2022-09-14T08:55:49.749Z,96154.00
2022-09-14T09:02:39.367Z,96161.00
2022-09-14T09:08:26.084Z,96158.00
2022-09-14T09:13:32.372Z,96141.00
2022-09-14T09:18:47.158Z,96145.00
2022-09-14T09:23:48.377Z,96146.00
2022-09-14T09:28:52.518Z,96150.00
2022-09-14T09:33:53.581Z,96146.00
2022-09-14T09:39:01.717Z,96163.00
2022-09-14T09:44:10.592Z,96176.00
2022-09-14T09:49:24.901Z,96151.00
2022-09-14T09:54:31.564Z,96128.00
2022-09-14T09:59:45.779Z,96134.00
2022-09-14T10:11:37.145Z,96122.00
2022-09-14T10:16:41.949Z,96114.00
2022-09-14T10:22:47.102Z,96104.00
2022-09-14T10:27:59.889Z,96100.00
2022-09-14T10:33:07.899Z,96079.00
2022-09-14T10:38:57.753Z,96070.00
2022-09-14T10:47:55.195Z,96068.00
2022-09-14T10:54:50.297Z,96076.00
2022-09-14T11:00:44.536Z,96078.00
2022-09-14T11:06:26.342Z,96057.00
2022-09-14T11:13:20.456Z,96067.00
2022-09-14T11:18:42.616Z,96071.00
2022-09-14T11:23:53.592Z,96072.00
2022-09-14T11:29:03.371Z,96067.00
2022-09-14T11:34:20.576Z,96068.00
2022-09-14T11:39:31.348Z,96061.00
2022-09-14T11:44:38.738Z,96049.00
2022-09-14T11:50:28.052Z,96058.00
2022-09-14T11:55:30.108Z,96054.00
2022-09-14T12:00:45.541Z,96053.00
2022-09-14T12:05:49.154Z,96051.00
2022-09-14T12:11:01.699Z,96047.00
2022-09-14T12:16:07.760Z,96050.00
2022-09-14T12:21:24.976Z,96048.00
2022-09-14T12:26:31.495Z,96029.00
2022-09-14T12:32:25.732Z,96023.00
2022-09-14T12:37:30.810Z,96024.00
2022-09-14T12:42:31.632Z,96027.00
2022-09-14T12:47:49.138Z,96024.00
2022-09-14T12:53:24.174Z,96025.00
2022-09-14T12:58:50.549Z,96019.00
2022-09-14T13:03:55.107Z,96012.00
2022-09-14T13:08:58.777Z,96002.00
2022-09-14T13:14:01.262Z,96011.00
2022-09-14T13:19:05.426Z,96004.00
2022-09-14T13:24:30.429Z,96007.00
2022-09-14T13:29:31.488Z,96026.00
2022-09-14T13:34:36.249Z,95963.00
2022-09-14T13:39:41.093Z,96000.00
2022-09-14T13:44:47.140Z,95999.00
2022-09-14T13:49:51.055Z,96005.00
2022-09-14T13:56:25.810Z,95997.00
2022-09-14T14:01:28.695Z,95984.00
2022-09-14T14:06:34.059Z,95985.00
2022-09-14T14:11:38.903Z,95971.00
2022-09-14T14:16:40.268Z,95979.00
2022-09-14T14:21:41.146Z,95968.00
2022-09-14T14:26:50.588Z,95948.00
2022-09-14T14:31:54.383Z,95939.00
2022-09-14T14:36:55.459Z,95919.00
2022-09-14T14:41:57.841Z,95940.00
2022-09-14T14:46:58.823Z,95936.00
2022-09-14T14:51:59.622Z,95924.00
2022-09-14T14:57:01.410Z,95907.00
2022-09-14T15:02:04.397Z,95910.00
2022-09-14T15:07:05.162Z,95911.00
2022-09-14T15:12:06.228Z,95913.00
2022-09-14T15:17:08.113Z,95928.00
2022-09-14T15:22:09.652Z,95900.00
2022-09-14T15:27:10.457Z,95904.00
2022-09-14T15:32:11.384Z,95902.00
2022-09-14T15:37:12.168Z,95879.00
2022-09-14T15:42:13.382Z,95853.00
2022-09-14T15:47:15.247Z,95845.00
2022-09-14T15:52:16.054Z,95870.00
2022-09-14T15:57:16.880Z,95874.00
2022-09-14T16:02:19.750Z,95863.00
2022-09-14T16:07:20.659Z,95859.00
2022-09-14T16:12:21.715Z,95898.00
2022-09-14T16:17:22.544Z,95920.00
2022-09-14T16:22:24.442Z,95932.00
2022-09-14T16:27:25.186Z,95958.00
2022-09-14T16:32:25.976Z,95959.00
2022-09-14T16:37:26.718Z,95942.00
2022-09-14T16:42:27.580Z,95915.00
2022-09-14T16:47:28.719Z,95912.00
2022-09-14T16:52:29.516Z,95918.00
2022-09-14T16:57:30.263Z,95926.00
2022-09-14T17:02:31.161Z,95940.00
2022-09-14T17:07:31.896Z,95941.00
2022-09-14T17:12:32.776Z,95953.00
2022-09-14T17:17:33.558Z,95974.00
2022-09-14T17:22:34.386Z,95980.00
2022-09-14T17:27:35.680Z,95952.00
2022-09-14T17:32:36.472Z,95936.00
2022-09-14T17:37:37.185Z,95940.00
2022-09-14T17:42:38.681Z,95962.00
2022-09-14T17:47:39.423Z,95956.00
2022-09-14T17:52:40.184Z,95953.00
2022-09-14T17:57:41.750Z,95948.00
2022-09-14T18:02:42.611Z,95962.00
2022-09-14T18:07:43.389Z,95974.00
2022-09-14T18:12:45.371Z,95974.00
2022-09-14T18:17:46.146Z,95980.00
2022-09-14T18:22:46.998Z,95978.00
2022-09-14T18:27:47.741Z,95978.00
2022-09-14T18:32:48.528Z,96003.00
2022-09-14T18:37:49.260Z,96019.00
2022-09-14T18:42:50.174Z,96007.00
2022-09-14T18:47:50.924Z,96008.00
2022-09-14T18:52:52.307Z,96004.00
2022-09-14T18:57:53.065Z,95996.00
2022-09-14T19:02:55.898Z,95998.00
2022-09-14T19:07:56.874Z,95991.00
2022-09-14T19:12:57.775Z,95986.00
2022-09-14T19:17:59.011Z,95983.00
2022-09-14T19:22:59.772Z,95977.00
2022-09-14T19:28:00.894Z,95994.00
2022-09-14T19:33:02.257Z,96002.00
2022-09-14T19:38:03.000Z,96015.00
2022-09-14T19:43:04.135Z,96029.00
2022-09-14T19:48:05.205Z,96031.00
2022-09-14T19:53:06.263Z,96034.00
2022-09-14T19:58:07.113Z,96036.00
2022-09-14T20:03:08.673Z,96050.00
2022-09-14T20:08:09.653Z,96046.00
2022-09-14T20:13:10.620Z,96046.00
2022-09-14T20:18:11.377Z,96057.00
2022-09-14T20:23:12.308Z,96053.00
2022-09-14T20:28:13.265Z,96059.00
2022-09-14T20:33:14.090Z,96067.00
2022-09-14T20:38:14.903Z,96060.00
2022-09-14T20:43:15.758Z,96060.00
2022-09-14T20:48:16.742Z,96067.00
2022-09-14T20:53:17.733Z,96076.00
2022-09-14T20:58:18.636Z,96076.00
2022-09-14T21:03:19.825Z,96071.00
2022-09-14T21:08:21.382Z,96066.00
2022-09-14T21:13:23.072Z,96061.00
2022-09-14T21:18:23.845Z,96051.00
2022-09-14T21:23:24.614Z,96055.00
2022-09-14T21:28:26.265Z,96048.00
2022-09-14T21:33:26.993Z,96053.00
2022-09-14T21:38:27.792Z,96056.00
2022-09-14T21:43:28.948Z,96057.00
2022-09-14T21:48:29.766Z,96068.00
2022-09-14T21:53:31.446Z,96073.00
2022-09-14T21:58:32.615Z,96070.00
2022-09-14T22:03:34.234Z,96059.00
2022-09-14T22:08:36.214Z,96065.00
2022-09-14T22:13:37.917Z,96055.00
2022-09-14T22:18:41.074Z,96048.00
2022-09-14T22:23:41.952Z,96052.00
2022-09-14T22:28:42.736Z,96042.00
2022-09-14T22:33:43.552Z,96055.00
2022-09-14T22:38:45.681Z,96061.00
2022-09-14T22:43:47.002Z,96057.00
2022-09-14T22:48:49.723Z,96060.00
2022-09-14T22:53:50.906Z,96058.00
2022-09-14T22:58:52.659Z,96066.00
2022-09-14T23:03:56.640Z,96070.00
2022-09-14T23:08:59.666Z,96059.00
2022-09-14T23:14:00.981Z,96060.00
2022-09-14T23:19:04.145Z,96063.00
2022-09-14T23:24:06.523Z,96060.00
2022-09-14T23:29:11.879Z,96054.00
2022-09-14T23:34:13.039Z,96044.00
2022-09-14T23:39:13.888Z,96049.00
2022-09-14T23:44:15.025Z,96056.00
2022-09-14T23:49:15.830Z,96048.00
2022-09-14T23:54:16.697Z,96056.00
2022-09-14T23:59:17.574Z,96051.00
